Aviation Digital Data Service (ADDS)

Output produced by METARs form (0127 UTC 06 December 2019)
found at http://www.aviationweather.gov/metar/data/
 
METAR text: KLHM 060115Z AUTO 01004KT 10SM SCT045 12/11 A3006 RMK AO1
Conditions at: KLHM (LINCOLN , CA, US) observed 0115 UTC 06 December 2019
Temperature: 12.0°C (54°F)
Dewpoint: 11.0°C (52°F) [RH = 94%]
Pressure (altimeter): 30.06 inches Hg (1018.0 mb)
Winds: from the N (10 degrees) at 5 MPH (4 knots; 2.1 m/s)
Visibility: 10 or more miles (16+ km)
Ceiling: at least 12,000 feet AGL
Clouds: scattered clouds at 4500 feet AGL
Weather: automated observation with no human augmentation;
there may or may not be significant weather present at this time

METAR text: KLHM 060055Z AUTO 32004KT 10SM SCT047 13/11 A3006 RMK AO1
Conditions at: KLHM (LINCOLN , CA, US) observed 0055 UTC 06 December 2019
Temperature: 13.0°C (55°F)
Dewpoint: 11.0°C (52°F) [RH = 88%]
Pressure (altimeter): 30.06 inches Hg (1018.0 mb)
Winds: from the NW (320 degrees) at 5 MPH (4 knots; 2.1 m/s)
Visibility: 10 or more miles (16+ km)
Ceiling: at least 12,000 feet AGL
Clouds: scattered clouds at 4700 feet AGL
Weather: automated observation with no human augmentation;
there may or may not be significant weather present at this time

METAR text: KLHM 060035Z AUTO 29004KT 10SM CLR 13/11 A3006 RMK AO1
Conditions at: KLHM (LINCOLN , CA, US) observed 0035 UTC 06 December 2019
Temperature: 13.0°C (55°F)
Dewpoint: 11.0°C (52°F) [RH = 88%]
Pressure (altimeter): 30.06 inches Hg (1018.0 mb)
Winds: from the WNW (290 degrees) at 5 MPH (4 knots; 2.1 m/s)
Visibility: 10 or more miles (16+ km)
Ceiling: at least 12,000 feet AGL
Clouds: sky clear below 12,000 feet AGL
Weather: automated observation with no human augmentation;
there may or may not be significant weather present at this time

METAR text: KLHM 060015Z AUTO 30003KT 10SM CLR 15/11 A3006 RMK AO1
Conditions at: KLHM (LINCOLN , CA, US) observed 0015 UTC 06 December 2019
Temperature: 15.0°C (59°F)
Dewpoint: 11.0°C (52°F) [RH = 77%]
Pressure (altimeter): 30.06 inches Hg (1018.0 mb)
Winds: from the WNW (300 degrees) at 3 MPH (3 knots; 1.5 m/s)
Visibility: 10 or more miles (16+ km)
Ceiling: at least 12,000 feet AGL
Clouds: sky clear below 12,000 feet AGL
Weather: automated observation with no human augmentation;
there may or may not be significant weather present at this time

METAR text: KLHM 052355Z AUTO 27004KT 10SM CLR 15/10 A3006 RMK AO1
Conditions at: KLHM (LINCOLN , CA, US) observed 2355 UTC 05 December 2019
Temperature: 15.0°C (59°F)
Dewpoint: 10.0°C (50°F) [RH = 72%]
Pressure (altimeter): 30.06 inches Hg (1018.0 mb)
Winds: from the W (270 degrees) at 5 MPH (4 knots; 2.1 m/s)
Visibility: 10 or more miles (16+ km)
Ceiling: at least 12,000 feet AGL
Clouds: sky clear below 12,000 feet AGL
Weather: automated observation with no human augmentation;
there may or may not be significant weather present at this time

METAR text: KLHM 052335Z AUTO 25004KT 10SM CLR 16/10 A3006 RMK AO1
Conditions at: KLHM (LINCOLN , CA, US) observed 2335 UTC 05 December 2019
Temperature: 16.0°C (61°F)
Dewpoint: 10.0°C (50°F) [RH = 68%]
Pressure (altimeter): 30.06 inches Hg (1018.0 mb)
Winds: from the WSW (250 degrees) at 5 MPH (4 knots; 2.1 m/s)
Visibility: 10 or more miles (16+ km)
Ceiling: at least 12,000 feet AGL
Clouds: sky clear below 12,000 feet AGL
Weather: automated observation with no human augmentation;
there may or may not be significant weather present at this time

METAR text: KLHM 052315Z AUTO 22005KT 10SM CLR 16/10 A3006 RMK AO1
Conditions at: KLHM (LINCOLN , CA, US) observed 2315 UTC 05 December 2019
Temperature: 16.0°C (61°F)
Dewpoint: 10.0°C (50°F) [RH = 68%]
Pressure (altimeter): 30.06 inches Hg (1018.0 mb)
Winds: from the SW (220 degrees) at 6 MPH (5 knots; 2.6 m/s)
Visibility: 10 or more miles (16+ km)
Ceiling: at least 12,000 feet AGL
Clouds: sky clear below 12,000 feet AGL
Weather: automated observation with no human augmentation;
there may or may not be significant weather present at this time

METAR text: KLHM 052255Z AUTO 20007KT 10SM CLR 17/09 A3006 RMK AO1
Conditions at: KLHM (LINCOLN , CA, US) observed 2255 UTC 05 December 2019
Temperature: 17.0°C (63°F)
Dewpoint: 9.0°C (48°F) [RH = 59%]
Pressure (altimeter): 30.06 inches Hg (1018.0 mb)
Winds: from the SSW (200 degrees) at 8 MPH (7 knots; 3.6 m/s)
Visibility: 10 or more miles (16+ km)
Ceiling: at least 12,000 feet AGL
Clouds: sky clear below 12,000 feet AGL
Weather: automated observation with no human augmentation;
there may or may not be significant weather present at this time

METAR text: KLHM 052235Z AUTO 20006KT 10SM CLR 17/09 A3005 RMK AO1
Conditions at: KLHM (LINCOLN , CA, US) observed 2235 UTC 05 December 2019
Temperature: 17.0°C (63°F)
Dewpoint: 9.0°C (48°F) [RH = 59%]
Pressure (altimeter): 30.05 inches Hg (1017.7 mb)
Winds: from the SSW (200 degrees) at 7 MPH (6 knots; 3.1 m/s)
Visibility: 10 or more miles (16+ km)
Ceiling: at least 12,000 feet AGL
Clouds: sky clear below 12,000 feet AGL
Weather: automated observation with no human augmentation;
there may or may not be significant weather present at this time

METAR text: KLHM 052215Z AUTO 15007KT 10SM CLR 17/08 A3005 RMK AO1
Conditions at: KLHM (LINCOLN , CA, US) observed 2215 UTC 05 December 2019
Temperature: 17.0°C (63°F)
Dewpoint: 8.0°C (46°F) [RH = 55%]
Pressure (altimeter): 30.05 inches Hg (1017.7 mb)
Winds: from the SSE (150 degrees) at 8 MPH (7 knots; 3.6 m/s)
Visibility: 10 or more miles (16+ km)
Ceiling: at least 12,000 feet AGL
Clouds: sky clear below 12,000 feet AGL
Weather: automated observation with no human augmentation;
there may or may not be significant weather present at this time

METAR text: KLHM 052155Z AUTO 17007KT 10SM CLR 17/08 A3005 RMK AO1
Conditions at: KLHM (LINCOLN , CA, US) observed 2155 UTC 05 December 2019
Temperature: 17.0°C (63°F)
Dewpoint: 8.0°C (46°F) [RH = 55%]
Pressure (altimeter): 30.05 inches Hg (1017.7 mb)
Winds: from the S (170 degrees) at 8 MPH (7 knots; 3.6 m/s)
Visibility: 10 or more miles (16+ km)
Ceiling: at least 12,000 feet AGL
Clouds: sky clear below 12,000 feet AGL
Weather: automated observation with no human augmentation;
there may or may not be significant weather present at this time

METAR text: KLHM 052135Z AUTO 15008KT 10SM CLR 17/08 A3006 RMK AO1
Conditions at: KLHM (LINCOLN , CA, US) observed 2135 UTC 05 December 2019
Temperature: 17.0°C (63°F)
Dewpoint: 8.0°C (46°F) [RH = 55%]
Pressure (altimeter): 30.06 inches Hg (1018.0 mb)
Winds: from the SSE (150 degrees) at 9 MPH (8 knots; 4.1 m/s)
Visibility: 10 or more miles (16+ km)
Ceiling: at least 12,000 feet AGL
Clouds: sky clear below 12,000 feet AGL
Weather: automated observation with no human augmentation;
there may or may not be significant weather present at this time

METAR text: KLHM 052115Z AUTO 15007KT 10SM CLR 17/09 A3006 RMK AO1
Conditions at: KLHM (LINCOLN , CA, US) observed 2115 UTC 05 December 2019
Temperature: 17.0°C (63°F)
Dewpoint: 9.0°C (48°F) [RH = 59%]
Pressure (altimeter): 30.06 inches Hg (1018.0 mb)
Winds: from the SSE (150 degrees) at 8 MPH (7 knots; 3.6 m/s)
Visibility: 10 or more miles (16+ km)
Ceiling: at least 12,000 feet AGL
Clouds: sky clear below 12,000 feet AGL
Weather: automated observation with no human augmentation;
there may or may not be significant weather present at this time

METAR text: KLHM 052055Z AUTO 15003KT 10SM CLR 17/09 A3007 RMK AO1
Conditions at: KLHM (LINCOLN , CA, US) observed 2055 UTC 05 December 2019
Temperature: 17.0°C (63°F)
Dewpoint: 9.0°C (48°F) [RH = 59%]
Pressure (altimeter): 30.07 inches Hg (1018.4 mb)
Winds: from the SSE (150 degrees) at 3 MPH (3 knots; 1.5 m/s)
Visibility: 10 or more miles (16+ km)
Ceiling: at least 12,000 feet AGL
Clouds: sky clear below 12,000 feet AGL
Weather: automated observation with no human augmentation;
there may or may not be significant weather present at this time

METAR text: KLHM 052035Z AUTO 15005KT 10SM CLR 17/09 A3008 RMK AO1
Conditions at: KLHM (LINCOLN , CA, US) observed 2035 UTC 05 December 2019
Temperature: 17.0°C (63°F)
Dewpoint: 9.0°C (48°F) [RH = 59%]
Pressure (altimeter): 30.08 inches Hg (1018.7 mb)
Winds: from the SSE (150 degrees) at 6 MPH (5 knots; 2.6 m/s)
Visibility: 10 or more miles (16+ km)
Ceiling: at least 12,000 feet AGL
Clouds: sky clear below 12,000 feet AGL
Weather: automated observation with no human augmentation;
there may or may not be significant weather present at this time

METAR text: KLHM 052015Z AUTO 14005KT 10SM CLR 17/10 A3009 RMK AO1
Conditions at: KLHM (LINCOLN , CA, US) observed 2015 UTC 05 December 2019
Temperature: 17.0°C (63°F)
Dewpoint: 10.0°C (50°F) [RH = 63%]
Pressure (altimeter): 30.09 inches Hg (1019.0 mb)
Winds: from the SE (140 degrees) at 6 MPH (5 knots; 2.6 m/s)
Visibility: 10 or more miles (16+ km)
Ceiling: at least 12,000 feet AGL
Clouds: sky clear below 12,000 feet AGL
Weather: automated observation with no human augmentation;
there may or may not be significant weather present at this time

METAR text: KLHM 051955Z AUTO 15003KT 10SM CLR 16/10 A3010 RMK AO1
Conditions at: KLHM (LINCOLN , CA, US) observed 1955 UTC 05 December 2019
Temperature: 16.0°C (61°F)
Dewpoint: 10.0°C (50°F) [RH = 68%]
Pressure (altimeter): 30.10 inches Hg (1019.4 mb)
Winds: from the SSE (150 degrees) at 3 MPH (3 knots; 1.5 m/s)
Visibility: 10 or more miles (16+ km)
Ceiling: at least 12,000 feet AGL
Clouds: sky clear below 12,000 feet AGL
Weather: automated observation with no human augmentation;
there may or may not be significant weather present at this time

METAR text: KLHM 051935Z AUTO 16004KT 10SM CLR 16/09 A3011 RMK AO1
Conditions at: KLHM (LINCOLN , CA, US) observed 1935 UTC 05 December 2019
Temperature: 16.0°C (61°F)
Dewpoint: 9.0°C (48°F) [RH = 63%]
Pressure (altimeter): 30.11 inches Hg (1019.7 mb)
Winds: from the SSE (160 degrees) at 5 MPH (4 knots; 2.1 m/s)
Visibility: 10 or more miles (16+ km)
Ceiling: at least 12,000 feet AGL
Clouds: sky clear below 12,000 feet AGL
Weather: automated observation with no human augmentation;
there may or may not be significant weather present at this time

METAR text: KLHM 051915Z AUTO 00000KT 10SM CLR 16/10 A3011 RMK AO1
Conditions at: KLHM (LINCOLN , CA, US) observed 1915 UTC 05 December 2019
Temperature: 16.0°C (61°F)
Dewpoint: 10.0°C (50°F) [RH = 68%]
Pressure (altimeter): 30.11 inches Hg (1019.7 mb)
Winds: calm
Visibility: 10 or more miles (16+ km)
Ceiling: at least 12,000 feet AGL
Clouds: sky clear below 12,000 feet AGL
Weather: automated observation with no human augmentation;
there may or may not be significant weather present at this time

METAR text: KLHM 051855Z AUTO 00000KT 10SM SCT029 15/10 A3011 RMK AO1
Conditions at: KLHM (LINCOLN , CA, US) observed 1855 UTC 05 December 2019
Temperature: 15.0°C (59°F)
Dewpoint: 10.0°C (50°F) [RH = 72%]
Pressure (altimeter): 30.11 inches Hg (1019.7 mb)
Winds: calm
Visibility: 10 or more miles (16+ km)
Ceiling: at least 12,000 feet AGL
Clouds: scattered clouds at 2900 feet AGL
Weather: automated observation with no human augmentation;
there may or may not be significant weather present at this time

METAR text: KLHM 051835Z AUTO 15003KT 10SM BKN029 15/10 A3012 RMK AO1
Conditions at: KLHM (LINCOLN , CA, US) observed 1835 UTC 05 December 2019
Temperature: 15.0°C (59°F)
Dewpoint: 10.0°C (50°F) [RH = 72%]
Pressure (altimeter): 30.12 inches Hg (1020.1 mb)
Winds: from the SSE (150 degrees) at 3 MPH (3 knots; 1.5 m/s)
Visibility: 10 or more miles (16+ km)
Ceiling: 2900 feet AGL
Clouds: broken clouds at 2900 feet AGL
Weather: automated observation with no human augmentation;
there may or may not be significant weather present at this time

METAR text: KLHM 051815Z AUTO 00000KT 10SM BKN029 BKN034 14/10 A3013 RMK AO1
Conditions at: KLHM (LINCOLN , CA, US) observed 1815 UTC 05 December 2019
Temperature: 14.0°C (57°F)
Dewpoint: 10.0°C (50°F) [RH = 77%]
Pressure (altimeter): 30.13 inches Hg (1020.4 mb)
Winds: calm
Visibility: 10 or more miles (16+ km)
Ceiling: 2900 feet AGL
Clouds: broken clouds at 2900 feet AGL
broken clouds at 3400 feet AGL
Weather: automated observation with no human augmentation;
there may or may not be significant weather present at this time

METAR text: KLHM 051755Z AUTO 00000KT 10SM SCT034 14/10 A3012 RMK AO1
Conditions at: KLHM (LINCOLN , CA, US) observed 1755 UTC 05 December 2019
Temperature: 14.0°C (57°F)
Dewpoint: 10.0°C (50°F) [RH = 77%]
Pressure (altimeter): 30.12 inches Hg (1020.1 mb)
Winds: calm
Visibility: 10 or more miles (16+ km)
Ceiling: at least 12,000 feet AGL
Clouds: scattered clouds at 3400 feet AGL
Weather: automated observation with no human augmentation;
there may or may not be significant weather present at this time

METAR text: KLHM 051735Z AUTO 00000KT 10SM CLR 13/10 A3012 RMK AO1
Conditions at: KLHM (LINCOLN , CA, US) observed 1735 UTC 05 December 2019
Temperature: 13.0°C (55°F)
Dewpoint: 10.0°C (50°F) [RH = 82%]
Pressure (altimeter): 30.12 inches Hg (1020.1 mb)
Winds: calm
Visibility: 10 or more miles (16+ km)
Ceiling: at least 12,000 feet AGL
Clouds: sky clear below 12,000 feet AGL
Weather: automated observation with no human augmentation;
there may or may not be significant weather present at this time

METAR text: KLHM 051715Z AUTO 08003KT 10SM CLR 12/11 A3011 RMK AO1
Conditions at: KLHM (LINCOLN , CA, US) observed 1715 UTC 05 December 2019
Temperature: 12.0°C (54°F)
Dewpoint: 11.0°C (52°F) [RH = 94%]
Pressure (altimeter): 30.11 inches Hg (1019.7 mb)
Winds: from the E (80 degrees) at 3 MPH (3 knots; 1.5 m/s)
Visibility: 10 or more miles (16+ km)
Ceiling: at least 12,000 feet AGL
Clouds: sky clear below 12,000 feet AGL
Weather: automated observation with no human augmentation;
there may or may not be significant weather present at this time

METAR text: KLHM 051655Z AUTO 09004KT 10SM CLR 11/10 A3010 RMK AO1
Conditions at: KLHM (LINCOLN , CA, US) observed 1655 UTC 05 December 2019
Temperature: 11.0°C (52°F)
Dewpoint: 10.0°C (50°F) [RH = 94%]
Pressure (altimeter): 30.10 inches Hg (1019.4 mb)
Winds: from the E (90 degrees) at 5 MPH (4 knots; 2.1 m/s)
Visibility: 10 or more miles (16+ km)
Ceiling: at least 12,000 feet AGL
Clouds: sky clear below 12,000 feet AGL
Weather: automated observation with no human augmentation;
there may or may not be significant weather present at this time

METAR text: KLHM 051635Z AUTO 10004KT 10SM CLR 11/10 A3010 RMK AO1
Conditions at: KLHM (LINCOLN , CA, US) observed 1635 UTC 05 December 2019
Temperature: 11.0°C (52°F)
Dewpoint: 10.0°C (50°F) [RH = 94%]
Pressure (altimeter): 30.10 inches Hg (1019.4 mb)
Winds: from the E (100 degrees) at 5 MPH (4 knots; 2.1 m/s)
Visibility: 10 or more miles (16+ km)
Ceiling: at least 12,000 feet AGL
Clouds: sky clear below 12,000 feet AGL
Weather: automated observation with no human augmentation;
there may or may not be significant weather present at this time

METAR text: KLHM 051615Z AUTO 09004KT 10SM CLR 09/09 A3009 RMK AO1
Conditions at: KLHM (LINCOLN , CA, US) observed 1615 UTC 05 December 2019
Temperature: 9.0°C (48°F)
Dewpoint: 9.0°C (48°F) [RH = 100%]
Pressure (altimeter): 30.09 inches Hg (1019.0 mb)
Winds: from the E (90 degrees) at 5 MPH (4 knots; 2.1 m/s)
Visibility: 10 or more miles (16+ km)
Ceiling: at least 12,000 feet AGL
Clouds: sky clear below 12,000 feet AGL
Weather: automated observation with no human augmentation;
there may or may not be significant weather present at this time

METAR text: KLHM 051555Z AUTO 07003KT 10SM CLR 07/07 A3008 RMK AO1
Conditions at: KLHM (LINCOLN , CA, US) observed 1555 UTC 05 December 2019
Temperature: 7.0°C (45°F)
Dewpoint: 7.0°C (45°F) [RH = 100%]
Pressure (altimeter): 30.08 inches Hg (1018.7 mb)
Winds: from the ENE (70 degrees) at 3 MPH (3 knots; 1.5 m/s)
Visibility: 10 or more miles (16+ km)
Ceiling: at least 12,000 feet AGL
Clouds: sky clear below 12,000 feet AGL
Weather: automated observation with no human augmentation;
there may or may not be significant weather present at this time

METAR text: KLHM 051535Z AUTO 08003KT 10SM CLR 07/06 A3008 RMK AO1
Conditions at: KLHM (LINCOLN , CA, US) observed 1535 UTC 05 December 2019
Temperature: 7.0°C (45°F)
Dewpoint: 6.0°C (43°F) [RH = 93%]
Pressure (altimeter): 30.08 inches Hg (1018.7 mb)
Winds: from the E (80 degrees) at 3 MPH (3 knots; 1.5 m/s)
Visibility: 10 or more miles (16+ km)
Ceiling: at least 12,000 feet AGL
Clouds: sky clear below 12,000 feet AGL
Weather: automated observation with no human augmentation;
there may or may not be significant weather present at this time

METAR text: KLHM 051515Z AUTO 06004KT 10SM CLR 06/06 A3007 RMK AO1
Conditions at: KLHM (LINCOLN , CA, US) observed 1515 UTC 05 December 2019
Temperature: 6.0°C (43°F)
Dewpoint: 6.0°C (43°F) [RH = 100%]
Pressure (altimeter): 30.07 inches Hg (1018.4 mb)
Winds: from the ENE (60 degrees) at 5 MPH (4 knots; 2.1 m/s)
Visibility: 10 or more miles (16+ km)
Ceiling: at least 12,000 feet AGL
Clouds: sky clear below 12,000 feet AGL
Weather: automated observation with no human augmentation;
there may or may not be significant weather present at this time

METAR text: KLHM 051455Z AUTO 06004KT 5SM CLR 06/06 A3006 RMK AO1
Conditions at: KLHM (LINCOLN , CA, US) observed 1455 UTC 05 December 2019
Temperature: 6.0°C (43°F)
Dewpoint: 6.0°C (43°F) [RH = 100%]
Pressure (altimeter): 30.06 inches Hg (1018.0 mb)
Winds: from the ENE (60 degrees) at 5 MPH (4 knots; 2.1 m/s)
Visibility: 5 miles ( 8 km)
Ceiling: at least 12,000 feet AGL
Clouds: sky clear below 12,000 feet AGL
Weather: automated observation with no human augmentation;
there may or may not be significant weather present at this time

METAR text: KLHM 051435Z AUTO 05003KT 1 1/4SM SCT030 SCT075 07/07 A3006 RMK AO1 VIS 1/2V5
Conditions at: KLHM (LINCOLN , CA, US) observed 1435 UTC 05 December 2019
Temperature: 7.0°C (45°F)
Dewpoint: 7.0°C (45°F) [RH = 100%]
Pressure (altimeter): 30.06 inches Hg (1018.0 mb)
Winds: from the NE (50 degrees) at 3 MPH (3 knots; 1.5 m/s)
Visibility: 1.25 miles (2.01 km)
Ceiling: at least 12,000 feet AGL
Clouds: scattered clouds at 3000 feet AGL
scattered clouds at 7500 feet AGL
Weather: automated observation with no human augmentation;
there may or may not be significant weather present at this time

METAR text: KLHM 051415Z AUTO 00000KT 3SM SCT030 BKN075 07/07 A3005 RMK AO1
Conditions at: KLHM (LINCOLN , CA, US) observed 1415 UTC 05 December 2019
Temperature: 7.0°C (45°F)
Dewpoint: 7.0°C (45°F) [RH = 100%]
Pressure (altimeter): 30.05 inches Hg (1017.7 mb)
Winds: calm
Visibility: 3 miles ( 5 km)
Ceiling: 7500 feet AGL
Clouds: scattered clouds at 3000 feet AGL
broken clouds at 7500 feet AGL
Weather: automated observation with no human augmentation;
there may or may not be significant weather present at this time

METAR text: KLHM 051355Z AUTO 00000KT 3/4SM BKN030 OVC075 07/07 A3005 RMK AO1
Conditions at: KLHM (LINCOLN , CA, US) observed 1355 UTC 05 December 2019
Temperature: 7.0°C (45°F)
Dewpoint: 7.0°C (45°F) [RH = 100%]
Pressure (altimeter): 30.05 inches Hg (1017.7 mb)
Winds: calm
Visibility: 0.75 miles (1.21 km)
Ceiling: 3000 feet AGL
Clouds: broken clouds at 3000 feet AGL
overcast cloud deck at 7500 feet AGL
Weather: automated observation with no human augmentation;
there may or may not be significant weather present at this time

METAR text: KLHM 051335Z AUTO 00000KT 2SM CLR 07/07 A3004 RMK AO1 VIS 1V5
Conditions at: KLHM (LINCOLN , CA, US) observed 1335 UTC 05 December 2019
Temperature: 7.0°C (45°F)
Dewpoint: 7.0°C (45°F) [RH = 100%]
Pressure (altimeter): 30.04 inches Hg (1017.4 mb)
Winds: calm
Visibility: 2.00 miles (3.22 km)
Ceiling: at least 12,000 feet AGL
Clouds: sky clear below 12,000 feet AGL
Weather: automated observation with no human augmentation;
there may or may not be significant weather present at this time

METAR text: KLHM 051315Z AUTO 00000KT 10SM SCT080 07/07 A3003 RMK AO1
Conditions at: KLHM (LINCOLN , CA, US) observed 1315 UTC 05 December 2019
Temperature: 7.0°C (45°F)
Dewpoint: 7.0°C (45°F) [RH = 100%]
Pressure (altimeter): 30.03 inches Hg (1017.0 mb)
Winds: calm
Visibility: 10 or more miles (16+ km)
Ceiling: at least 12,000 feet AGL
Clouds: scattered clouds at 8000 feet AGL
Weather: automated observation with no human augmentation;
there may or may not be significant weather present at this time

METAR text: KLHM 051255Z AUTO 08004KT 10SM OVC080 08/08 A3002 RMK AO1
Conditions at: KLHM (LINCOLN , CA, US) observed 1255 UTC 05 December 2019
Temperature: 8.0°C (46°F)
Dewpoint: 8.0°C (46°F) [RH = 100%]
Pressure (altimeter): 30.02 inches Hg (1016.7 mb)
Winds: from the E (80 degrees) at 5 MPH (4 knots; 2.1 m/s)
Visibility: 10 or more miles (16+ km)
Ceiling: 8000 feet AGL
Clouds: overcast cloud deck at 8000 feet AGL
Weather: automated observation with no human augmentation;
there may or may not be significant weather present at this time

METAR text: KLHM 051235Z AUTO 07004KT 10SM BKN080 08/08 A3002 RMK AO1
Conditions at: KLHM (LINCOLN , CA, US) observed 1235 UTC 05 December 2019
Temperature: 8.0°C (46°F)
Dewpoint: 8.0°C (46°F) [RH = 100%]
Pressure (altimeter): 30.02 inches Hg (1016.7 mb)
Winds: from the ENE (70 degrees) at 5 MPH (4 knots; 2.1 m/s)
Visibility: 10 or more miles (16+ km)
Ceiling: 8000 feet AGL
Clouds: broken clouds at 8000 feet AGL
Weather: automated observation with no human augmentation;
there may or may not be significant weather present at this time

METAR text: KLHM 051215Z AUTO 00000KT 5SM BKN080 08/08 A3002 RMK AO1
Conditions at: KLHM (LINCOLN , CA, US) observed 1215 UTC 05 December 2019
Temperature: 8.0°C (46°F)
Dewpoint: 8.0°C (46°F) [RH = 100%]
Pressure (altimeter): 30.02 inches Hg (1016.7 mb)
Winds: calm
Visibility: 5 miles ( 8 km)
Ceiling: 8000 feet AGL
Clouds: broken clouds at 8000 feet AGL
Weather: automated observation with no human augmentation;
there may or may not be significant weather present at this time

METAR text: KLHM 051155Z AUTO 00000KT 7SM SCT080 08/08 A3002 RMK AO1
Conditions at: KLHM (LINCOLN , CA, US) observed 1155 UTC 05 December 2019
Temperature: 8.0°C (46°F)
Dewpoint: 8.0°C (46°F) [RH = 100%]
Pressure (altimeter): 30.02 inches Hg (1016.7 mb)
Winds: calm
Visibility: 7 miles (11 km)
Ceiling: at least 12,000 feet AGL
Clouds: scattered clouds at 8000 feet AGL
Weather: automated observation with no human augmentation;
there may or may not be significant weather present at this time

METAR text: KLHM 051135Z AUTO 00000KT 5SM SCT050 08/08 A3002 RMK AO1
Conditions at: KLHM (LINCOLN , CA, US) observed 1135 UTC 05 December 2019
Temperature: 8.0°C (46°F)
Dewpoint: 8.0°C (46°F) [RH = 100%]
Pressure (altimeter): 30.02 inches Hg (1016.7 mb)
Winds: calm
Visibility: 5 miles ( 8 km)
Ceiling: at least 12,000 feet AGL
Clouds: scattered clouds at 5000 feet AGL
Weather: automated observation with no human augmentation;
there may or may not be significant weather present at this time

METAR text: KLHM 051115Z AUTO 00000KT 3SM BKN050 09/08 A3002 RMK AO1
Conditions at: KLHM (LINCOLN , CA, US) observed 1115 UTC 05 December 2019
Temperature: 9.0°C (48°F)
Dewpoint: 8.0°C (46°F) [RH = 93%]
Pressure (altimeter): 30.02 inches Hg (1016.7 mb)
Winds: calm
Visibility: 3 miles ( 5 km)
Ceiling: 5000 feet AGL
Clouds: broken clouds at 5000 feet AGL
Weather: automated observation with no human augmentation;
there may or may not be significant weather present at this time

METAR text: KLHM 051055Z AUTO 07003KT 5SM SCT050 BKN065 10/10 A3001 RMK AO1
Conditions at: KLHM (LINCOLN , CA, US) observed 1055 UTC 05 December 2019
Temperature: 10.0°C (50°F)
Dewpoint: 10.0°C (50°F) [RH = 100%]
Pressure (altimeter): 30.01 inches Hg (1016.3 mb)
Winds: from the ENE (70 degrees) at 3 MPH (3 knots; 1.5 m/s)
Visibility: 5 miles ( 8 km)
Ceiling: 6500 feet AGL
Clouds: scattered clouds at 5000 feet AGL
broken clouds at 6500 feet AGL
Weather: automated observation with no human augmentation;
there may or may not be significant weather present at this time

METAR text: KLHM 051035Z AUTO 00000KT 2 1/2SM SCT050 BKN065 10/10 A3002 RMK AO1 VIS 1 1/4V5
Conditions at: KLHM (LINCOLN , CA, US) observed 1035 UTC 05 December 2019
Temperature: 10.0°C (50°F)
Dewpoint: 10.0°C (50°F) [RH = 100%]
Pressure (altimeter): 30.02 inches Hg (1016.7 mb)
Winds: calm
Visibility: 2.50 miles (4.02 km)
Ceiling: 6500 feet AGL
Clouds: scattered clouds at 5000 feet AGL
broken clouds at 6500 feet AGL
Weather: automated observation with no human augmentation;
there may or may not be significant weather present at this time

METAR text: KLHM 051015Z AUTO 08003KT 10SM SCT032 BKN050 OVC065 11/11 A3002 RMK AO1
Conditions at: KLHM (LINCOLN , CA, US) observed 1015 UTC 05 December 2019
Temperature: 11.0°C (52°F)
Dewpoint: 11.0°C (52°F) [RH = 100%]
Pressure (altimeter): 30.02 inches Hg (1016.7 mb)
Winds: from the E (80 degrees) at 3 MPH (3 knots; 1.5 m/s)
Visibility: 10 or more miles (16+ km)
Ceiling: 5000 feet AGL
Clouds: scattered clouds at 3200 feet AGL
broken clouds at 5000 feet AGL
overcast cloud deck at 6500 feet AGL
Weather: automated observation with no human augmentation;
there may or may not be significant weather present at this time

METAR text: KLHM 050955Z AUTO 06003KT 10SM BKN032 OVC050 11/11 A3001 RMK AO1
Conditions at: KLHM (LINCOLN , CA, US) observed 0955 UTC 05 December 2019
Temperature: 11.0°C (52°F)
Dewpoint: 11.0°C (52°F) [RH = 100%]
Pressure (altimeter): 30.01 inches Hg (1016.3 mb)
Winds: from the ENE (60 degrees) at 3 MPH (3 knots; 1.5 m/s)
Visibility: 10 or more miles (16+ km)
Ceiling: 3200 feet AGL
Clouds: broken clouds at 3200 feet AGL
overcast cloud deck at 5000 feet AGL
Weather: automated observation with no human augmentation;
there may or may not be significant weather present at this time

METAR text: KLHM 050935Z AUTO 07003KT 10SM SCT026 OVC032 11/11 A3001 RMK AO1
Conditions at: KLHM (LINCOLN , CA, US) observed 0935 UTC 05 December 2019
Temperature: 11.0°C (52°F)
Dewpoint: 11.0°C (52°F) [RH = 100%]
Pressure (altimeter): 30.01 inches Hg (1016.3 mb)
Winds: from the ENE (70 degrees) at 3 MPH (3 knots; 1.5 m/s)
Visibility: 10 or more miles (16+ km)
Ceiling: 3200 feet AGL
Clouds: scattered clouds at 2600 feet AGL
overcast cloud deck at 3200 feet AGL
Weather: automated observation with no human augmentation;
there may or may not be significant weather present at this time

METAR text: KLHM 050915Z AUTO 07003KT 10SM BKN026 OVC030 11/11 A3001 RMK AO1
Conditions at: KLHM (LINCOLN , CA, US) observed 0915 UTC 05 December 2019
Temperature: 11.0°C (52°F)
Dewpoint: 11.0°C (52°F) [RH = 100%]
Pressure (altimeter): 30.01 inches Hg (1016.3 mb)
Winds: from the ENE (70 degrees) at 3 MPH (3 knots; 1.5 m/s)
Visibility: 10 or more miles (16+ km)
Ceiling: 2600 feet AGL
Clouds: broken clouds at 2600 feet AGL
overcast cloud deck at 3000 feet AGL
Weather: automated observation with no human augmentation;
there may or may not be significant weather present at this time

METAR text: KLHM 050855Z AUTO 00000KT 10SM OVC026 11/11 A3001 RMK AO1
Conditions at: KLHM (LINCOLN , CA, US) observed 0855 UTC 05 December 2019
Temperature: 11.0°C (52°F)
Dewpoint: 11.0°C (52°F) [RH = 100%]
Pressure (altimeter): 30.01 inches Hg (1016.3 mb)
Winds: calm
Visibility: 10 or more miles (16+ km)
Ceiling: 2600 feet AGL
Clouds: overcast cloud deck at 2600 feet AGL
Weather: automated observation with no human augmentation;
there may or may not be significant weather present at this time

METAR text: KLHM 050835Z AUTO 00000KT 10SM SCT026 BKN031 BKN070 11/11 A3000 RMK AO1
Conditions at: KLHM (LINCOLN , CA, US) observed 0835 UTC 05 December 2019
Temperature: 11.0°C (52°F)
Dewpoint: 11.0°C (52°F) [RH = 100%]
Pressure (altimeter): 30.00 inches Hg (1016.0 mb)
Winds: calm
Visibility: 10 or more miles (16+ km)
Ceiling: 3100 feet AGL
Clouds: scattered clouds at 2600 feet AGL
broken clouds at 3100 feet AGL
broken clouds at 7000 feet AGL
Weather: automated observation with no human augmentation;
there may or may not be significant weather present at this time

METAR text: KLHM 050815Z AUTO 08004KT 10SM BKN026 BKN032 11/11 A2999 RMK AO1
Conditions at: KLHM (LINCOLN , CA, US) observed 0815 UTC 05 December 2019
Temperature: 11.0°C (52°F)
Dewpoint: 11.0°C (52°F) [RH = 100%]
Pressure (altimeter): 29.99 inches Hg (1015.7 mb)
Winds: from the E (80 degrees) at 5 MPH (4 knots; 2.1 m/s)
Visibility: 10 or more miles (16+ km)
Ceiling: 2600 feet AGL
Clouds: broken clouds at 2600 feet AGL
broken clouds at 3200 feet AGL
Weather: automated observation with no human augmentation;
there may or may not be significant weather present at this time

METAR text: KLHM 050755Z AUTO 09003KT 10SM OVC026 11/11 A3000 RMK AO1
Conditions at: KLHM (LINCOLN , CA, US) observed 0755 UTC 05 December 2019
Temperature: 11.0°C (52°F)
Dewpoint: 11.0°C (52°F) [RH = 100%]
Pressure (altimeter): 30.00 inches Hg (1016.0 mb)
Winds: from the E (90 degrees) at 3 MPH (3 knots; 1.5 m/s)
Visibility: 10 or more miles (16+ km)
Ceiling: 2600 feet AGL
Clouds: overcast cloud deck at 2600 feet AGL
Weather: automated observation with no human augmentation;
there may or may not be significant weather present at this time

METAR text: KLHM 050735Z AUTO 00000KT 7SM OVC026 11/11 A3000 RMK AO1
Conditions at: KLHM (LINCOLN , CA, US) observed 0735 UTC 05 December 2019
Temperature: 11.0°C (52°F)
Dewpoint: 11.0°C (52°F) [RH = 100%]
Pressure (altimeter): 30.00 inches Hg (1016.0 mb)
Winds: calm
Visibility: 7 miles (11 km)
Ceiling: 2600 feet AGL
Clouds: overcast cloud deck at 2600 feet AGL
Weather: automated observation with no human augmentation;
there may or may not be significant weather present at this time

METAR text: KLHM 050715Z AUTO 00000KT 7SM OVC022 11/11 A3000 RMK AO1
Conditions at: KLHM (LINCOLN , CA, US) observed 0715 UTC 05 December 2019
Temperature: 11.0°C (52°F)
Dewpoint: 11.0°C (52°F) [RH = 100%]
Pressure (altimeter): 30.00 inches Hg (1016.0 mb)
Winds: calm
Visibility: 7 miles (11 km)
Ceiling: 2200 feet AGL
Clouds: overcast cloud deck at 2200 feet AGL
Weather: automated observation with no human augmentation;
there may or may not be significant weather present at this time

METAR text: KLHM 050655Z AUTO 00000KT 7SM OVC022 11/11 A2999 RMK AO1
Conditions at: KLHM (LINCOLN , CA, US) observed 0655 UTC 05 December 2019
Temperature: 11.0°C (52°F)
Dewpoint: 11.0°C (52°F) [RH = 100%]
Pressure (altimeter): 29.99 inches Hg (1015.7 mb)
Winds: calm
Visibility: 7 miles (11 km)
Ceiling: 2200 feet AGL
Clouds: overcast cloud deck at 2200 feet AGL
Weather: automated observation with no human augmentation;
there may or may not be significant weather present at this time

METAR text: KLHM 050635Z AUTO 09004KT 7SM OVC026 11/11 A2998 RMK AO1
Conditions at: KLHM (LINCOLN , CA, US) observed 0635 UTC 05 December 2019
Temperature: 11.0°C (52°F)
Dewpoint: 11.0°C (52°F) [RH = 100%]
Pressure (altimeter): 29.98 inches Hg (1015.3 mb)
Winds: from the E (90 degrees) at 5 MPH (4 knots; 2.1 m/s)
Visibility: 7 miles (11 km)
Ceiling: 2600 feet AGL
Clouds: overcast cloud deck at 2600 feet AGL
Weather: automated observation with no human augmentation;
there may or may not be significant weather present at this time

METAR text: KLHM 050615Z AUTO 10005KT 5SM BKN021 BKN026 OVC032 11/11 A2998 RMK AO1
Conditions at: KLHM (LINCOLN , CA, US) observed 0615 UTC 05 December 2019
Temperature: 11.0°C (52°F)
Dewpoint: 11.0°C (52°F) [RH = 100%]
Pressure (altimeter): 29.98 inches Hg (1015.3 mb)
Winds: from the E (100 degrees) at 6 MPH (5 knots; 2.6 m/s)
Visibility: 5 miles ( 8 km)
Ceiling: 2100 feet AGL
Clouds: broken clouds at 2100 feet AGL
broken clouds at 2600 feet AGL
overcast cloud deck at 3200 feet AGL
Weather: automated observation with no human augmentation;
there may or may not be significant weather present at this time

METAR text: KLHM 050555Z AUTO 00000KT 7SM OVC021 11/11 A2998 RMK AO1
Conditions at: KLHM (LINCOLN , CA, US) observed 0555 UTC 05 December 2019
Temperature: 11.0°C (52°F)
Dewpoint: 11.0°C (52°F) [RH = 100%]
Pressure (altimeter): 29.98 inches Hg (1015.3 mb)
Winds: calm
Visibility: 7 miles (11 km)
Ceiling: 2100 feet AGL
Clouds: overcast cloud deck at 2100 feet AGL
Weather: automated observation with no human augmentation;
there may or may not be significant weather present at this time

METAR text: KLHM 050535Z AUTO 00000KT 7SM OVC023 11/11 A2997 RMK AO1
Conditions at: KLHM (LINCOLN , CA, US) observed 0535 UTC 05 December 2019
Temperature: 11.0°C (52°F)
Dewpoint: 11.0°C (52°F) [RH = 100%]
Pressure (altimeter): 29.97 inches Hg (1015.0 mb)
Winds: calm
Visibility: 7 miles (11 km)
Ceiling: 2300 feet AGL
Clouds: overcast cloud deck at 2300 feet AGL
Weather: automated observation with no human augmentation;
there may or may not be significant weather present at this time

METAR text: KLHM 050515Z AUTO 00000KT 10SM OVC023 11/10 A2997 RMK AO1
Conditions at: KLHM (LINCOLN , CA, US) observed 0515 UTC 05 December 2019
Temperature: 11.0°C (52°F)
Dewpoint: 10.0°C (50°F) [RH = 94%]
Pressure (altimeter): 29.97 inches Hg (1015.0 mb)
Winds: calm
Visibility: 10 or more miles (16+ km)
Ceiling: 2300 feet AGL
Clouds: overcast cloud deck at 2300 feet AGL
Weather: automated observation with no human augmentation;
there may or may not be significant weather present at this time

METAR text: KLHM 050455Z AUTO 00000KT 10SM OVC020 11/10 A2996 RMK AO1
Conditions at: KLHM (LINCOLN , CA, US) observed 0455 UTC 05 December 2019
Temperature: 11.0°C (52°F)
Dewpoint: 10.0°C (50°F) [RH = 94%]
Pressure (altimeter): 29.96 inches Hg (1014.6 mb)
Winds: calm
Visibility: 10 or more miles (16+ km)
Ceiling: 2000 feet AGL
Clouds: overcast cloud deck at 2000 feet AGL
Weather: automated observation with no human augmentation;
there may or may not be significant weather present at this time

METAR text: KLHM 050435Z AUTO 00000KT 10SM OVC022 11/10 A2996 RMK AO1
Conditions at: KLHM (LINCOLN , CA, US) observed 0435 UTC 05 December 2019
Temperature: 11.0°C (52°F)
Dewpoint: 10.0°C (50°F) [RH = 94%]
Pressure (altimeter): 29.96 inches Hg (1014.6 mb)
Winds: calm
Visibility: 10 or more miles (16+ km)
Ceiling: 2200 feet AGL
Clouds: overcast cloud deck at 2200 feet AGL
Weather: automated observation with no human augmentation;
there may or may not be significant weather present at this time

METAR text: KLHM 050415Z AUTO 00000KT 10SM OVC022 11/10 A2995 RMK AO1
Conditions at: KLHM (LINCOLN , CA, US) observed 0415 UTC 05 December 2019
Temperature: 11.0°C (52°F)
Dewpoint: 10.0°C (50°F) [RH = 94%]
Pressure (altimeter): 29.95 inches Hg (1014.3 mb)
Winds: calm
Visibility: 10 or more miles (16+ km)
Ceiling: 2200 feet AGL
Clouds: overcast cloud deck at 2200 feet AGL
Weather: automated observation with no human augmentation;
there may or may not be significant weather present at this time

METAR text: KLHM 050355Z AUTO 00000KT 7SM SCT005 OVC022 11/10 A2994 RMK AO1
Conditions at: KLHM (LINCOLN , CA, US) observed 0355 UTC 05 December 2019
Temperature: 11.0°C (52°F)
Dewpoint: 10.0°C (50°F) [RH = 94%]
Pressure (altimeter): 29.94 inches Hg (1014.0 mb)
Winds: calm
Visibility: 7 miles (11 km)
Ceiling: 2200 feet AGL
Clouds: scattered clouds at 500 feet AGL
overcast cloud deck at 2200 feet AGL
Weather: automated observation with no human augmentation;
there may or may not be significant weather present at this time

METAR text: KLHM 050335Z AUTO 00000KT 7SM SCT005 SCT014 OVC022 11/10 A2993 RMK AO1
Conditions at: KLHM (LINCOLN , CA, US) observed 0335 UTC 05 December 2019
Temperature: 11.0°C (52°F)
Dewpoint: 10.0°C (50°F) [RH = 94%]
Pressure (altimeter): 29.93 inches Hg (1013.6 mb)
Winds: calm
Visibility: 7 miles (11 km)
Ceiling: 2200 feet AGL
Clouds: scattered clouds at 500 feet AGL
scattered clouds at 1400 feet AGL
overcast cloud deck at 2200 feet AGL
Weather: automated observation with no human augmentation;
there may or may not be significant weather present at this time

METAR text: KLHM 050315Z AUTO 00000KT 5SM SCT005 SCT014 OVC022 11/10 A2993 RMK AO1
Conditions at: KLHM (LINCOLN , CA, US) observed 0315 UTC 05 December 2019
Temperature: 11.0°C (52°F)
Dewpoint: 10.0°C (50°F) [RH = 94%]
Pressure (altimeter): 29.93 inches Hg (1013.6 mb)
Winds: calm
Visibility: 5 miles ( 8 km)
Ceiling: 2200 feet AGL
Clouds: scattered clouds at 500 feet AGL
scattered clouds at 1400 feet AGL
overcast cloud deck at 2200 feet AGL
Weather: automated observation with no human augmentation;
there may or may not be significant weather present at this time

METAR text: KLHM 050255Z AUTO 00000KT 7SM OVC020 11/10 A2993 RMK AO1
Conditions at: KLHM (LINCOLN , CA, US) observed 0255 UTC 05 December 2019
Temperature: 11.0°C (52°F)
Dewpoint: 10.0°C (50°F) [RH = 94%]
Pressure (altimeter): 29.93 inches Hg (1013.6 mb)
Winds: calm
Visibility: 7 miles (11 km)
Ceiling: 2000 feet AGL
Clouds: overcast cloud deck at 2000 feet AGL
Weather: automated observation with no human augmentation;
there may or may not be significant weather present at this time

METAR text: KLHM 050235Z AUTO 00000KT 5SM OVC020 11/10 A2992 RMK AO1
Conditions at: KLHM (LINCOLN , CA, US) observed 0235 UTC 05 December 2019
Temperature: 11.0°C (52°F)
Dewpoint: 10.0°C (50°F) [RH = 94%]
Pressure (altimeter): 29.92 inches Hg (1013.3 mb)
Winds: calm
Visibility: 5 miles ( 8 km)
Ceiling: 2000 feet AGL
Clouds: overcast cloud deck at 2000 feet AGL
Weather: automated observation with no human augmentation;
there may or may not be significant weather present at this time

METAR text: KLHM 050215Z AUTO 32004KT 5SM BKN020 OVC027 11/10 A2991 RMK AO1
Conditions at: KLHM (LINCOLN , CA, US) observed 0215 UTC 05 December 2019
Temperature: 11.0°C (52°F)
Dewpoint: 10.0°C (50°F) [RH = 94%]
Pressure (altimeter): 29.91 inches Hg (1013.0 mb)
Winds: from the NW (320 degrees) at 5 MPH (4 knots; 2.1 m/s)
Visibility: 5 miles ( 8 km)
Ceiling: 2000 feet AGL
Clouds: broken clouds at 2000 feet AGL
overcast cloud deck at 2700 feet AGL
Weather: automated observation with no human augmentation;
there may or may not be significant weather present at this time

METAR text: KLHM 050155Z AUTO 31004KT 5SM OVC025 11/11 A2990 RMK AO1
Conditions at: KLHM (LINCOLN , CA, US) observed 0155 UTC 05 December 2019
Temperature: 11.0°C (52°F)
Dewpoint: 11.0°C (52°F) [RH = 100%]
Pressure (altimeter): 29.90 inches Hg (1012.6 mb)
Winds: from the NW (310 degrees) at 5 MPH (4 knots; 2.1 m/s)
Visibility: 5 miles ( 8 km)
Ceiling: 2500 feet AGL
Clouds: overcast cloud deck at 2500 feet AGL
Weather: automated observation with no human augmentation;
there may or may not be significant weather present at this time

METAR text: KLHM 050135Z AUTO 31003KT 5SM BKN025 OVC031 11/11 A2989 RMK AO1
Conditions at: KLHM (LINCOLN , CA, US) observed 0135 UTC 05 December 2019
Temperature: 11.0°C (52°F)
Dewpoint: 11.0°C (52°F) [RH = 100%]
Pressure (altimeter): 29.89 inches Hg (1012.3 mb)
Winds: from the NW (310 degrees) at 3 MPH (3 knots; 1.5 m/s)
Visibility: 5 miles ( 8 km)
Ceiling: 2500 feet AGL
Clouds: broken clouds at 2500 feet AGL
overcast cloud deck at 3100 feet AGL
Weather: automated observation with no human augmentation;
there may or may not be significant weather present at this time

METAR text: KLHM 050115Z AUTO 00000KT 5SM OVC033 11/11 A2988 RMK AO1
Conditions at: KLHM (LINCOLN , CA, US) observed 0115 UTC 05 December 2019
Temperature: 11.0°C (52°F)
Dewpoint: 11.0°C (52°F) [RH = 100%]
Pressure (altimeter): 29.88 inches Hg (1011.9 mb)
Winds: calm
Visibility: 5 miles ( 8 km)
Ceiling: 3300 feet AGL
Clouds: overcast cloud deck at 3300 feet AGL
Weather: automated observation with no human augmentation;
there may or may not be significant weather present at this time

METAR text: KLHM 050055Z AUTO 00000KT 4SM SCT004 BKN033 OVC042 11/11 A2988 RMK AO1
Conditions at: KLHM (LINCOLN , CA, US) observed 0055 UTC 05 December 2019
Temperature: 11.0°C (52°F)
Dewpoint: 11.0°C (52°F) [RH = 100%]
Pressure (altimeter): 29.88 inches Hg (1011.9 mb)
Winds: calm
Visibility: 4 miles ( 6 km)
Ceiling: 3300 feet AGL
Clouds: scattered clouds at 400 feet AGL
broken clouds at 3300 feet AGL
overcast cloud deck at 4200 feet AGL
Weather: automated observation with no human augmentation;
there may or may not be significant weather present at this time

METAR text: KLHM 050035Z AUTO 00000KT 2SM SCT004 OVC042 11/11 A2987 RMK AO1 P0001
Conditions at: KLHM (LINCOLN , CA, US) observed 0035 UTC 05 December 2019
Temperature: 11.0°C (52°F)
Dewpoint: 11.0°C (52°F) [RH = 100%]
Pressure (altimeter): 29.87 inches Hg (1011.6 mb)
Winds: calm
Visibility: 2.00 miles (3.22 km)
Ceiling: 4200 feet AGL
Clouds: scattered clouds at 400 feet AGL
overcast cloud deck at 4200 feet AGL
Weather: automated observation with no human augmentation;
there may or may not be significant weather present at this time

METAR text: KLHM 050015Z AUTO 32003KT 3SM OVC042 11/11 A2987 RMK AO1
Conditions at: KLHM (LINCOLN , CA, US) observed 0015 UTC 05 December 2019
Temperature: 11.0°C (52°F)
Dewpoint: 11.0°C (52°F) [RH = 100%]
Pressure (altimeter): 29.87 inches Hg (1011.6 mb)
Winds: from the NW (320 degrees) at 3 MPH (3 knots; 1.5 m/s)
Visibility: 3 miles ( 5 km)
Ceiling: 4200 feet AGL
Clouds: overcast cloud deck at 4200 feet AGL
Weather: automated observation with no human augmentation;
there may or may not be significant weather present at this time

METAR text: KLHM 042355Z AUTO 00000KT 2 1/2SM BKN035 OVC044 11/11 A2986 RMK AO1
Conditions at: KLHM (LINCOLN , CA, US) observed 2355 UTC 04 December 2019
Temperature: 11.0°C (52°F)
Dewpoint: 11.0°C (52°F) [RH = 100%]
Pressure (altimeter): 29.86 inches Hg (1011.3 mb)
Winds: calm
Visibility: 2.50 miles (4.02 km)
Ceiling: 3500 feet AGL
Clouds: broken clouds at 3500 feet AGL
overcast cloud deck at 4400 feet AGL
Weather: automated observation with no human augmentation;
there may or may not be significant weather present at this time

METAR text: KLHM 042335Z AUTO 00000KT 5SM SCT009 BKN037 OVC044 11/11 A2986 RMK AO1
Conditions at: KLHM (LINCOLN , CA, US) observed 2335 UTC 04 December 2019
Temperature: 11.0°C (52°F)
Dewpoint: 11.0°C (52°F) [RH = 100%]
Pressure (altimeter): 29.86 inches Hg (1011.3 mb)
Winds: calm
Visibility: 5 miles ( 8 km)
Ceiling: 3700 feet AGL
Clouds: scattered clouds at 900 feet AGL
broken clouds at 3700 feet AGL
overcast cloud deck at 4400 feet AGL
Weather: automated observation with no human augmentation;
there may or may not be significant weather present at this time

METAR text: KLHM 042315Z AUTO 00000KT 5SM SCT007 SCT019 OVC044 11/11 A2986 RMK AO1
Conditions at: KLHM (LINCOLN , CA, US) observed 2315 UTC 04 December 2019
Temperature: 11.0°C (52°F)
Dewpoint: 11.0°C (52°F) [RH = 100%]
Pressure (altimeter): 29.86 inches Hg (1011.3 mb)
Winds: calm
Visibility: 5 miles ( 8 km)
Ceiling: 4400 feet AGL
Clouds: scattered clouds at 700 feet AGL
scattered clouds at 1900 feet AGL
overcast cloud deck at 4400 feet AGL
Weather: automated observation with no human augmentation;
there may or may not be significant weather present at this time

METAR text: KLHM 042255Z AUTO 02003KT 5SM BKN007 BKN036 OVC046 11/10 A2985 RMK AO1
Conditions at: KLHM (LINCOLN , CA, US) observed 2255 UTC 04 December 2019
Temperature: 11.0°C (52°F)
Dewpoint: 10.0°C (50°F) [RH = 94%]
Pressure (altimeter): 29.85 inches Hg (1010.9 mb)
Winds: from the NNE (20 degrees) at 3 MPH (3 knots; 1.5 m/s)
Visibility: 5 miles ( 8 km)
Ceiling: 700 feet AGL
Clouds: broken clouds at 700 feet AGL
broken clouds at 3600 feet AGL
overcast cloud deck at 4600 feet AGL
Weather: automated observation with no human augmentation;
there may or may not be significant weather present at this time

METAR text: KLHM 042235Z AUTO 36006KT 7SM OVC007 12/11 A2985 RMK AO1
Conditions at: KLHM (LINCOLN , CA, US) observed 2235 UTC 04 December 2019
Temperature: 12.0°C (54°F)
Dewpoint: 11.0°C (52°F) [RH = 94%]
Pressure (altimeter): 29.85 inches Hg (1010.9 mb)
Winds: from the N (360 degrees) at 7 MPH (6 knots; 3.1 m/s)
Visibility: 7 miles (11 km)
Ceiling: 700 feet AGL
Clouds: overcast cloud deck at 700 feet AGL
Weather: automated observation with no human augmentation;
there may or may not be significant weather present at this time

METAR text: KLHM 042215Z AUTO 36003KT 10SM OVC007 12/11 A2985 RMK AO1
Conditions at: KLHM (LINCOLN , CA, US) observed 2215 UTC 04 December 2019
Temperature: 12.0°C (54°F)
Dewpoint: 11.0°C (52°F) [RH = 94%]
Pressure (altimeter): 29.85 inches Hg (1010.9 mb)
Winds: from the N (360 degrees) at 3 MPH (3 knots; 1.5 m/s)
Visibility: 10 or more miles (16+ km)
Ceiling: 700 feet AGL
Clouds: overcast cloud deck at 700 feet AGL
Weather: automated observation with no human augmentation;
there may or may not be significant weather present at this time

METAR text: KLHM 042155Z AUTO 33004KT 10SM OVC005 12/11 A2984 RMK AO1
Conditions at: KLHM (LINCOLN , CA, US) observed 2155 UTC 04 December 2019
Temperature: 12.0°C (54°F)
Dewpoint: 11.0°C (52°F) [RH = 94%]
Pressure (altimeter): 29.84 inches Hg (1010.6 mb)
Winds: from the NNW (330 degrees) at 5 MPH (4 knots; 2.1 m/s)
Visibility: 10 or more miles (16+ km)
Ceiling: 500 feet AGL
Clouds: overcast cloud deck at 500 feet AGL
Weather: automated observation with no human augmentation;
there may or may not be significant weather present at this time

METAR text: KLHM 042135Z AUTO 33003KT 10SM OVC005 12/11 A2984 RMK AO1
Conditions at: KLHM (LINCOLN , CA, US) observed 2135 UTC 04 December 2019
Temperature: 12.0°C (54°F)
Dewpoint: 11.0°C (52°F) [RH = 94%]
Pressure (altimeter): 29.84 inches Hg (1010.6 mb)
Winds: from the NNW (330 degrees) at 3 MPH (3 knots; 1.5 m/s)
Visibility: 10 or more miles (16+ km)
Ceiling: 500 feet AGL
Clouds: overcast cloud deck at 500 feet AGL
Weather: automated observation with no human augmentation;
there may or may not be significant weather present at this time

METAR text: KLHM 042115Z AUTO 32004KT 10SM BKN005 OVC055 11/11 A2985 RMK AO1
Conditions at: KLHM (LINCOLN , CA, US) observed 2115 UTC 04 December 2019
Temperature: 11.0°C (52°F)
Dewpoint: 11.0°C (52°F) [RH = 100%]
Pressure (altimeter): 29.85 inches Hg (1010.9 mb)
Winds: from the NW (320 degrees) at 5 MPH (4 knots; 2.1 m/s)
Visibility: 10 or more miles (16+ km)
Ceiling: 500 feet AGL
Clouds: broken clouds at 500 feet AGL
overcast cloud deck at 5500 feet AGL
Weather: automated observation with no human augmentation;
there may or may not be significant weather present at this time

METAR text: KLHM 042055Z AUTO 31004KT 7SM BKN005 BKN032 OVC041 11/11 A2985 RMK AO1
Conditions at: KLHM (LINCOLN , CA, US) observed 2055 UTC 04 December 2019
Temperature: 11.0°C (52°F)
Dewpoint: 11.0°C (52°F) [RH = 100%]
Pressure (altimeter): 29.85 inches Hg (1010.9 mb)
Winds: from the NW (310 degrees) at 5 MPH (4 knots; 2.1 m/s)
Visibility: 7 miles (11 km)
Ceiling: 500 feet AGL
Clouds: broken clouds at 500 feet AGL
broken clouds at 3200 feet AGL
overcast cloud deck at 4100 feet AGL
Weather: automated observation with no human augmentation;
there may or may not be significant weather present at this time

METAR text: KLHM 042035Z AUTO 30004KT 10SM SCT005 SCT032 OVC041 11/11 A2986 RMK AO1
Conditions at: KLHM (LINCOLN , CA, US) observed 2035 UTC 04 December 2019
Temperature: 11.0°C (52°F)
Dewpoint: 11.0°C (52°F) [RH = 100%]
Pressure (altimeter): 29.86 inches Hg (1011.3 mb)
Winds: from the WNW (300 degrees) at 5 MPH (4 knots; 2.1 m/s)
Visibility: 10 or more miles (16+ km)
Ceiling: 4100 feet AGL
Clouds: scattered clouds at 500 feet AGL
scattered clouds at 3200 feet AGL
overcast cloud deck at 4100 feet AGL
Weather: automated observation with no human augmentation;
there may or may not be significant weather present at this time

METAR text: KLHM 042015Z AUTO 27003KT 10SM BKN005 OVC041 11/11 A2987 RMK AO1
Conditions at: KLHM (LINCOLN , CA, US) observed 2015 UTC 04 December 2019
Temperature: 11.0°C (52°F)
Dewpoint: 11.0°C (52°F) [RH = 100%]
Pressure (altimeter): 29.87 inches Hg (1011.6 mb)
Winds: from the W (270 degrees) at 3 MPH (3 knots; 1.5 m/s)
Visibility: 10 or more miles (16+ km)
Ceiling: 500 feet AGL
Clouds: broken clouds at 500 feet AGL
overcast cloud deck at 4100 feet AGL
Weather: automated observation with no human augmentation;
there may or may not be significant weather present at this time

METAR text: KLHM 041955Z AUTO 27003KT 10SM BKN003 BKN046 OVC070 11/11 A2987 RMK AO1
Conditions at: KLHM (LINCOLN , CA, US) observed 1955 UTC 04 December 2019
Temperature: 11.0°C (52°F)
Dewpoint: 11.0°C (52°F) [RH = 100%]
Pressure (altimeter): 29.87 inches Hg (1011.6 mb)
Winds: from the W (270 degrees) at 3 MPH (3 knots; 1.5 m/s)
Visibility: 10 or more miles (16+ km)
Ceiling: 300 feet AGL
Clouds: broken clouds at 300 feet AGL
broken clouds at 4600 feet AGL
overcast cloud deck at 7000 feet AGL
Weather: automated observation with no human augmentation;
there may or may not be significant weather present at this time

METAR text: KLHM 041935Z AUTO 29004KT 7SM BKN003 BKN055 OVC080 11/11 A2987 RMK AO1
Conditions at: KLHM (LINCOLN , CA, US) observed 1935 UTC 04 December 2019
Temperature: 11.0°C (52°F)
Dewpoint: 11.0°C (52°F) [RH = 100%]
Pressure (altimeter): 29.87 inches Hg (1011.6 mb)
Winds: from the WNW (290 degrees) at 5 MPH (4 knots; 2.1 m/s)
Visibility: 7 miles (11 km)
Ceiling: 300 feet AGL
Clouds: broken clouds at 300 feet AGL
broken clouds at 5500 feet AGL
overcast cloud deck at 8000 feet AGL
Weather: automated observation with no human augmentation;
there may or may not be significant weather present at this time

METAR text: KLHM 041915Z AUTO 30005KT 10SM BKN065 OVC080 11/11 A2988 RMK AO1
Conditions at: KLHM (LINCOLN , CA, US) observed 1915 UTC 04 December 2019
Temperature: 11.0°C (52°F)
Dewpoint: 11.0°C (52°F) [RH = 100%]
Pressure (altimeter): 29.88 inches Hg (1011.9 mb)
Winds: from the WNW (300 degrees) at 6 MPH (5 knots; 2.6 m/s)
Visibility: 10 or more miles (16+ km)
Ceiling: 6500 feet AGL
Clouds: broken clouds at 6500 feet AGL
overcast cloud deck at 8000 feet AGL
Weather: automated observation with no human augmentation;
there may or may not be significant weather present at this time

METAR text: KLHM 041855Z AUTO 32008KT 10SM BKN060 BKN080 11/11 A2989 RMK AO1
Conditions at: KLHM (LINCOLN , CA, US) observed 1855 UTC 04 December 2019
Temperature: 11.0°C (52°F)
Dewpoint: 11.0°C (52°F) [RH = 100%]
Pressure (altimeter): 29.89 inches Hg (1012.3 mb)
Winds: from the NW (320 degrees) at 9 MPH (8 knots; 4.1 m/s)
Visibility: 10 or more miles (16+ km)
Ceiling: 6000 feet AGL
Clouds: broken clouds at 6000 feet AGL
broken clouds at 8000 feet AGL
Weather: automated observation with no human augmentation;
there may or may not be significant weather present at this time

METAR text: KLHM 041835Z AUTO 33007KT 7SM SCT039 SCT050 SCT065 11/11 A2988 RMK AO1 P0001
Conditions at: KLHM (LINCOLN , CA, US) observed 1835 UTC 04 December 2019
Temperature: 11.0°C (52°F)
Dewpoint: 11.0°C (52°F) [RH = 100%]
Pressure (altimeter): 29.88 inches Hg (1011.9 mb)
Winds: from the NNW (330 degrees) at 8 MPH (7 knots; 3.6 m/s)
Visibility: 7 miles (11 km)
Ceiling: at least 12,000 feet AGL
Clouds: scattered clouds at 3900 feet AGL
scattered clouds at 5000 feet AGL
scattered clouds at 6500 feet AGL
Weather: automated observation with no human augmentation;
there may or may not be significant weather present at this time

METAR text: KLHM 041815Z AUTO 35006KT 10SM SCT065 SCT080 11/11 A2990 RMK AO1 P0001
Conditions at: KLHM (LINCOLN , CA, US) observed 1815 UTC 04 December 2019
Temperature: 11.0°C (52°F)
Dewpoint: 11.0°C (52°F) [RH = 100%]
Pressure (altimeter): 29.90 inches Hg (1012.6 mb)
Winds: from the N (350 degrees) at 7 MPH (6 knots; 3.1 m/s)
Visibility: 10 or more miles (16+ km)
Ceiling: at least 12,000 feet AGL
Clouds: scattered clouds at 6500 feet AGL
scattered clouds at 8000 feet AGL
Weather: automated observation with no human augmentation;
there may or may not be significant weather present at this time

METAR text: KLHM 041755Z AUTO 02003KT 10SM CLR 11/11 A2991 RMK AO1
Conditions at: KLHM (LINCOLN , CA, US) observed 1755 UTC 04 December 2019
Temperature: 11.0°C (52°F)
Dewpoint: 11.0°C (52°F) [RH = 100%]
Pressure (altimeter): 29.91 inches Hg (1013.0 mb)
Winds: from the NNE (20 degrees) at 3 MPH (3 knots; 1.5 m/s)
Visibility: 10 or more miles (16+ km)
Ceiling: at least 12,000 feet AGL
Clouds: sky clear below 12,000 feet AGL
Weather: automated observation with no human augmentation;
there may or may not be significant weather present at this time

METAR text: KLHM 041735Z AUTO 00000KT 7SM CLR 11/10 A2991 RMK AO1 P0002
Conditions at: KLHM (LINCOLN , CA, US) observed 1735 UTC 04 December 2019
Temperature: 11.0°C (52°F)
Dewpoint: 10.0°C (50°F) [RH = 94%]
Pressure (altimeter): 29.91 inches Hg (1013.0 mb)
Winds: calm
Visibility: 7 miles (11 km)
Ceiling: at least 12,000 feet AGL
Clouds: sky clear below 12,000 feet AGL
Weather: automated observation with no human augmentation;
there may or may not be significant weather present at this time

METAR text: KLHM 041715Z AUTO 00000KT 7SM CLR 10/10 A2990 RMK AO1 P0001
Conditions at: KLHM (LINCOLN , CA, US) observed 1715 UTC 04 December 2019
Temperature: 10.0°C (50°F)
Dewpoint: 10.0°C (50°F) [RH = 100%]
Pressure (altimeter): 29.90 inches Hg (1012.6 mb)
Winds: calm
Visibility: 7 miles (11 km)
Ceiling: at least 12,000 feet AGL
Clouds: sky clear below 12,000 feet AGL
Weather: automated observation with no human augmentation;
there may or may not be significant weather present at this time

METAR text: KLHM 041655Z AUTO 00000KT 4SM SCT036 SCT044 BKN060 10/10 A2990 RMK AO1
Conditions at: KLHM (LINCOLN , CA, US) observed 1655 UTC 04 December 2019
Temperature: 10.0°C (50°F)
Dewpoint: 10.0°C (50°F) [RH = 100%]
Pressure (altimeter): 29.90 inches Hg (1012.6 mb)
Winds: calm
Visibility: 4 miles ( 6 km)
Ceiling: 6000 feet AGL
Clouds: scattered clouds at 3600 feet AGL
scattered clouds at 4400 feet AGL
broken clouds at 6000 feet AGL
Weather: automated observation with no human augmentation;
there may or may not be significant weather present at this time

METAR text: KLHM 041635Z AUTO 00000KT 4SM BKN038 BKN046 10/10 A2990 RMK AO1 P0002
Conditions at: KLHM (LINCOLN , CA, US) observed 1635 UTC 04 December 2019
Temperature: 10.0°C (50°F)
Dewpoint: 10.0°C (50°F) [RH = 100%]
Pressure (altimeter): 29.90 inches Hg (1012.6 mb)
Winds: calm
Visibility: 4 miles ( 6 km)
Ceiling: 3800 feet AGL
Clouds: broken clouds at 3800 feet AGL
broken clouds at 4600 feet AGL
Weather: automated observation with no human augmentation;
there may or may not be significant weather present at this time

METAR text: KLHM 041615Z AUTO 00000KT 3SM OVC036 10/10 A2989 RMK AO1 P0001
Conditions at: KLHM (LINCOLN , CA, US) observed 1615 UTC 04 December 2019
Temperature: 10.0°C (50°F)
Dewpoint: 10.0°C (50°F) [RH = 100%]
Pressure (altimeter): 29.89 inches Hg (1012.3 mb)
Winds: calm
Visibility: 3 miles ( 5 km)
Ceiling: 3600 feet AGL
Clouds: overcast cloud deck at 3600 feet AGL
Weather: automated observation with no human augmentation;
there may or may not be significant weather present at this time

METAR text: KLHM 041555Z AUTO 00000KT 3SM SCT010 BKN036 OVC043 10/10 A2989 RMK AO1
Conditions at: KLHM (LINCOLN , CA, US) observed 1555 UTC 04 December 2019
Temperature: 10.0°C (50°F)
Dewpoint: 10.0°C (50°F) [RH = 100%]
Pressure (altimeter): 29.89 inches Hg (1012.3 mb)
Winds: calm
Visibility: 3 miles ( 5 km)
Ceiling: 3600 feet AGL
Clouds: scattered clouds at 1000 feet AGL
broken clouds at 3600 feet AGL
overcast cloud deck at 4300 feet AGL
Weather: automated observation with no human augmentation;
there may or may not be significant weather present at this time

METAR text: KLHM 041535Z AUTO 01003KT 3SM SCT001 SCT011 OVC041 10/10 A2989 RMK AO1 P0002
Conditions at: KLHM (LINCOLN , CA, US) observed 1535 UTC 04 December 2019
Temperature: 10.0°C (50°F)
Dewpoint: 10.0°C (50°F) [RH = 100%]
Pressure (altimeter): 29.89 inches Hg (1012.3 mb)
Winds: from the N (10 degrees) at 3 MPH (3 knots; 1.5 m/s)
Visibility: 3 miles ( 5 km)
Ceiling: 4100 feet AGL
Clouds: scattered clouds at 100 feet AGL
scattered clouds at 1100 feet AGL
overcast cloud deck at 4100 feet AGL
Weather: automated observation with no human augmentation;
there may or may not be significant weather present at this time

METAR text: KLHM 041515Z AUTO 01004KT 3SM BKN001 BKN008 OVC040 10/10 A2989 RMK AO1 P0001
Conditions at: KLHM (LINCOLN , CA, US) observed 1515 UTC 04 December 2019
Temperature: 10.0°C (50°F)
Dewpoint: 10.0°C (50°F) [RH = 100%]
Pressure (altimeter): 29.89 inches Hg (1012.3 mb)
Winds: from the N (10 degrees) at 5 MPH (4 knots; 2.1 m/s)
Visibility: 3 miles ( 5 km)
Ceiling: 100 feet AGL
Clouds: broken clouds at 100 feet AGL
broken clouds at 800 feet AGL
overcast cloud deck at 4000 feet AGL
Weather: automated observation with no human augmentation;
there may or may not be significant weather present at this time

METAR text: KLHM 041455Z AUTO 00000KT 4SM OVC001 10/10 A2989 RMK AO1
Conditions at: KLHM (LINCOLN , CA, US) observed 1455 UTC 04 December 2019
Temperature: 10.0°C (50°F)
Dewpoint: 10.0°C (50°F) [RH = 100%]
Pressure (altimeter): 29.89 inches Hg (1012.3 mb)
Winds: calm
Visibility: 4 miles ( 6 km)
Ceiling: 100 feet AGL
Clouds: overcast cloud deck at 100 feet AGL
Weather: automated observation with no human augmentation;
there may or may not be significant weather present at this time

METAR text: KLHM 041435Z AUTO 01003KT 4SM OVC001 10/10 A2988 RMK AO1 P0003
Conditions at: KLHM (LINCOLN , CA, US) observed 1435 UTC 04 December 2019
Temperature: 10.0°C (50°F)
Dewpoint: 10.0°C (50°F) [RH = 100%]
Pressure (altimeter): 29.88 inches Hg (1011.9 mb)
Winds: from the N (10 degrees) at 3 MPH (3 knots; 1.5 m/s)
Visibility: 4 miles ( 6 km)
Ceiling: 100 feet AGL
Clouds: overcast cloud deck at 100 feet AGL
Weather: automated observation with no human augmentation;
there may or may not be significant weather present at this time

METAR text: KLHM 041415Z AUTO 03003KT 1 1/2SM OVC001 10/09 A2989 RMK AO1 P0001
Conditions at: KLHM (LINCOLN , CA, US) observed 1415 UTC 04 December 2019
Temperature: 10.0°C (50°F)
Dewpoint: 9.0°C (48°F) [RH = 93%]
Pressure (altimeter): 29.89 inches Hg (1012.3 mb)
Winds: from the NNE (30 degrees) at 3 MPH (3 knots; 1.5 m/s)
Visibility: 1.50 miles (2.41 km)
Ceiling: 100 feet AGL
Clouds: overcast cloud deck at 100 feet AGL
Weather: automated observation with no human augmentation;
there may or may not be significant weather present at this time

METAR text: KLHM 041355Z AUTO 35004KT 2 1/2SM BKN001 BKN012 OVC049 10/10 A2988 RMK AO1
Conditions at: KLHM (LINCOLN , CA, US) observed 1355 UTC 04 December 2019
Temperature: 10.0°C (50°F)
Dewpoint: 10.0°C (50°F) [RH = 100%]
Pressure (altimeter): 29.88 inches Hg (1011.9 mb)
Winds: from the N (350 degrees) at 5 MPH (4 knots; 2.1 m/s)
Visibility: 2.50 miles (4.02 km)
Ceiling: 100 feet AGL
Clouds: broken clouds at 100 feet AGL
broken clouds at 1200 feet AGL
overcast cloud deck at 4900 feet AGL
Weather: automated observation with no human augmentation;
there may or may not be significant weather present at this time

METAR text: KLHM 041335Z AUTO 00000KT 2 1/2SM OVC001 09/09 A2989 RMK AO1
Conditions at: KLHM (LINCOLN , CA, US) observed 1335 UTC 04 December 2019
Temperature: 9.0°C (48°F)
Dewpoint: 9.0°C (48°F) [RH = 100%]
Pressure (altimeter): 29.89 inches Hg (1012.3 mb)
Winds: calm
Visibility: 2.50 miles (4.02 km)
Ceiling: 100 feet AGL
Clouds: overcast cloud deck at 100 feet AGL
Weather: automated observation with no human augmentation;
there may or may not be significant weather present at this time